UAL Aberdeen — PBHZ — position and weather

sailwx.info

Track history (hours):
 
Tides and Currents Weather Stations Pressure Air Temp Water Temp Dewpoint Dewpoint Depression Visibility Wind Speed Wind Dir Waves Ship Positions

UAL Aberdeen

Last reported at 2015-Aug-30 13:25 UTC. Time now 2015-Aug-30 14:01 UTC.
Position N 36°32' W 000°52'.

Length 129 m; beam 17 m.

Type: Cargo ship. MMSI: 244093964.

Date/timePositionNaut miles runAvg speedWind from/ knotsBaromVisibWave heightAir tempDewpointWater temp
2015-Aug-30 13:25N 36°32' W 000°52'39211.8
2015-Aug-29 04:10N 36°29' W 009°00'812.5
2015-Aug-29 03:33N 36°32' W 009°09'1312.6
2015-Aug-29 02:33N 36°38' W 009°23'1312.9
2015-Aug-29 01:33N 36°48' W 009°33'1313.0
2015-Aug-29 00:33N 37°01' W 009°36'1119.8
2015-Aug-29 00:00N 37°12' W 009°36'3 7.8 999 / 41013.610.8 1.0
2015-Aug-28 23:33N 37°13' W 009°40'1312.9
2015-Aug-28 22:33N 37°26' W 009°44'1313.0
2015-Aug-28 21:33N 37°38' W 009°48'1312.7
2015-Aug-28 20:33N 37°51' W 009°52'1212.6
2015-Aug-28 19:33N 38°03' W 009°55'1312.9
2015-Aug-28 18:33N 38°15' W 009°59'1313.1
2015-Aug-28 17:33N 38°28' W 010°03'1313.1
2015-Aug-28 16:33N 38°41' W 010°07'1313.0
2015-Aug-28 15:33N 38°54' W 010°06'1312.9
2015-Aug-28 14:33N 39°07' W 010°07'1312.7
2015-Aug-28 13:33N 39°20' W 010°08'1212.5
2015-Aug-28 12:33N 39°32' W 010°07'1312.6
2015-Aug-28 11:32N 39°45' W 010°07'294 8.6
2015-Aug-27 01:26N 43°47' W 006°23'1111.7
2015-Aug-27 00:32N 43°46' W 006°08'1111.4
2015-Aug-26 23:31N 43°45' W 005°52'1010.3
2015-Aug-26 22:33N 43°42' W 005°39'9 8.8
2015-Aug-26 21:33N 43°34' W 005°41'0 0.1
2015-Aug-26 19:28N 43°34' W 005°41'0 0.0
2015-Aug-26 17:22N 43°34' W 005°41'0 0.0
2015-Aug-26 16:10N 43°34' W 005°41'0 0.0
2015-Aug-26 15:28N 43°34' W 005°41'0 0.0
2015-Aug-26 14:28N 43°34' W 005°41'0 0.0
2015-Aug-26 13:28N 43°34' W 005°41'0 0.0
2015-Aug-26 11:22N 43°34' W 005°41'0 0.0
2015-Aug-26 09:10N 43°34' W 005°41'0 0.0
2015-Aug-26 08:16N 43°34' W 005°41'0 0.0
2015-Aug-26 04:22N 43°34' W 005°41'0 0.0
2015-Aug-26 03:28N 43°34' W 005°41'0 0.0
2015-Aug-26 02:04N 43°34' W 005°41'0 0.0
2015-Aug-26 01:22N 43°34' W 005°41'0 0.0
2015-Aug-26 00:28N 43°34' W 005°41'0 0.0
2015-Aug-25 23:22N 43°34' W 005°41'0 0.0
2015-Aug-25 22:28N 43°34' W 005°41'0 0.0
2015-Aug-25 21:28N 43°34' W 005°41'0 0.0
2015-Aug-25 20:27N 43°34' W 005°41'0 0.0
2015-Aug-25 18:33N 43°34' W 005°41'0 0.0
2015-Aug-25 16:27N 43°34' W 005°41'0 0.0
2015-Aug-25 15:27N 43°34' W 005°41'0 0.0
2015-Aug-25 13:21N 43°34' W 005°41'0 0.0
2015-Aug-25 11:27N 43°34' W 005°41'0 0.0
2015-Aug-25 10:33N 43°34' W 005°41'0 0.0
2015-Aug-25 09:33N 43°34' W 005°41'0 0.0
2015-Aug-25 08:33N 43°34' W 005°41'0 0.0
2015-Aug-25 07:27N 43°34' W 005°41'0 0.0
2015-Aug-25 06:33N 43°34' W 005°41'0 0.0
2015-Aug-25 05:33N 43°34' W 005°41'0 0.0
2015-Aug-25 04:15N 43°34' W 005°41'0 0.0
2015-Aug-25 03:33N 43°34' W 005°41'0 0.0
2015-Aug-25 01:33N 43°34' W 005°41'0 0.0
2015-Aug-25 00:27N 43°34' W 005°41'0 0.0
2015-Aug-24 21:15N 43°34' W 005°41'0 0.0
2015-Aug-24 20:33N 43°34' W 005°41'0 0.0
2015-Aug-24 19:15N 43°34' W 005°41'0 0.0
2015-Aug-24 18:33N 43°34' W 005°41'0 0.0
2015-Aug-24 17:33N 43°34' W 005°41'0 0.0
2015-Aug-24 16:27N 43°34' W 005°41'0 0.0
2015-Aug-24 15:27N 43°34' W 005°41'0 0.0
2015-Aug-24 14:33N 43°34' W 005°41'6 5.5
2015-Aug-24 13:32N 43°37' W 005°35'1010.0
2015-Aug-24 12:33N 43°36' W 005°22'10 9.8
2015-Aug-24 11:32N 43°34' W 005°08'4 0.8
2015-Aug-24 06:22N 43°35' W 005°14'4 2.2
2015-Aug-24 04:24N 43°36' W 005°20'2 2.5
2015-Aug-24 03:27N 43°36' W 005°23'2 2.7
2015-Aug-24 02:33N 43°36' W 005°27'3 2.5
2015-Aug-24 01:33N 43°37' W 005°30'3 2.8
2015-Aug-24 00:33N 43°38' W 005°34'4 0.9
2015-Aug-23 20:33N 43°36' W 005°29'3 2.8
2015-Aug-23 19:33N 43°36' W 005°33'2 2.2
2015-Aug-23 18:33N 43°36' W 005°36'1 1.0
2015-Aug-23 17:32N 43°37' W 005°37'1 0.9
2015-Aug-23 16:33N 43°37' W 005°36'1 1.4
2015-Aug-23 15:33N 43°37' W 005°34'1 0.9
2015-Aug-23 14:33N 43°36' W 005°33'7 5.6
2015-Aug-23 13:21N 43°36' W 005°42'0 0.1
2015-Aug-23 11:27N 43°36' W 005°42'0 0.1
2015-Aug-23 10:33N 43°36' W 005°42'0 0.0
2015-Aug-23 09:27N 43°36' W 005°42'0 0.0
2015-Aug-23 08:21N 43°36' W 005°42'0 0.0
2015-Aug-23 07:27N 43°36' W 005°42'0 0.0
2015-Aug-23 06:33N 43°36' W 005°42'0 0.1
2015-Aug-23 05:33N 43°36' W 005°42'0 0.0
2015-Aug-23 04:27N 43°36' W 005°42'0 0.0
2015-Aug-23 03:33N 43°36' W 005°42'0 0.1
2015-Aug-23 02:27N 43°36' W 005°42'0 0.0
2015-Aug-23 01:27N 43°36' W 005°42'0 0.0
2015-Aug-22 23:27N 43°36' W 005°42'0 0.0
2015-Aug-22 22:09N 43°36' W 005°42'0 0.0
2015-Aug-22 19:33N 43°36' W 005°42'0 0.1
2015-Aug-22 18:21N 43°36' W 005°42'0 0.1
2015-Aug-22 16:32N 43°36' W 005°42'0 0.0
2015-Aug-22 15:20N 43°36' W 005°42'0 0.1
2015-Aug-22 13:32N 43°36' W 005°42'0 0.0
2015-Aug-22 11:26N 43°36' W 005°42'0 0.1
2015-Aug-22 09:26N 43°36' W 005°42'0 0.1
2015-Aug-22 08:20N 43°36' W 005°42'0 0.1
2015-Aug-22 07:26N 43°36' W 005°42'0 0.1
2015-Aug-22 06:32N 43°36' W 005°42'0 0.1
2015-Aug-22 05:20N 43°36' W 005°42'0 0.0
2015-Aug-22 04:32N 43°36' W 005°42'0 0.0
2015-Aug-22 03:32N 43°36' W 005°42'0 0.0
2015-Aug-22 02:26N 43°36' W 005°42'0 0.0
2015-Aug-22 01:26N 43°36' W 005°42'0 0.0
2015-Aug-22 00:32N 43°36' W 005°42'0 0.0
2015-Aug-21 22:20N 43°36' W 005°42'0 0.0
2015-Aug-21 21:32N 43°36' W 005°42'0 0.0
2015-Aug-21 20:32N 43°36' W 005°42'0 0.0
2015-Aug-21 17:08N 43°36' W 005°42'0 0.0
2015-Aug-21 16:14N 43°36' W 005°42'0 0.0
2015-Aug-21 15:32N 43°36' W 005°42'0 0.0
2015-Aug-21 13:20N 43°36' W 005°42'0 0.0
2015-Aug-21 12:26N 43°36' W 005°42'0 0.1
2015-Aug-21 11:08N 43°36' W 005°42'0 0.0
2015-Aug-21 10:32N 43°36' W 005°42'0 0.1
2015-Aug-21 09:19N 43°36' W 005°42'0 0.0
2015-Aug-21 08:25N 43°36' W 005°42'0 0.0
2015-Aug-21 07:31N 43°36' W 005°42'0 0.0
2015-Aug-21 06:31N 43°36' W 005°42'0 0.0
2015-Aug-21 04:19N 43°36' W 005°42'0 0.0
2015-Aug-20 22:31N 43°36' W 005°42'0 0.0
2015-Aug-20 21:31N 43°36' W 005°42'0 0.0
2015-Aug-20 20:25N 43°36' W 005°42'0 0.0
2015-Aug-20 18:25N 43°36' W 005°42'0 0.0
2015-Aug-20 17:31N 43°36' W 005°42'0 0.0
2015-Aug-20 16:25N 43°36' W 005°42'0 0.0
2015-Aug-20 15:31N 43°36' W 005°42'0 0.0
2015-Aug-20 14:31N 43°36' W 005°42'0 0.0
2015-Aug-20 13:31N 43°36' W 005°42'  
Track history (hours):
 
Tides and Currents Weather Stations Pressure Air Temp Water Temp Dewpoint Dewpoint Depression Visibility Wind Speed Wind Dir Waves Ship Positions

UAL Aberdeen

Last reported at 2015-Aug-30 13:25 UTC. Time now 2015-Aug-30 14:01 UTC.
Position N 36°32' W 000°52'.

Length 129 m; beam 17 m.

Type: Cargo ship. MMSI: 244093964.

Date/timePositionNaut miles runAvg speedWind from/ knotsBaromVisibWave heightAir tempDewpointWater temp
2015-Aug-30 13:25N 36°32' W 000°52'39211.8
2015-Aug-29 04:10N 36°29' W 009°00'812.5
2015-Aug-29 03:33N 36°32' W 009°09'1312.6
2015-Aug-29 02:33N 36°38' W 009°23'1312.9
2015-Aug-29 01:33N 36°48' W 009°33'1313.0
2015-Aug-29 00:33N 37°01' W 009°36'1119.8
2015-Aug-29 00:00N 37°12' W 009°36'3 7.8 999 / 41013.610.8 1.0
2015-Aug-28 23:33N 37°13' W 009°40'1312.9
2015-Aug-28 22:33N 37°26' W 009°44'1313.0
2015-Aug-28 21:33N 37°38' W 009°48'1312.7
2015-Aug-28 20:33N 37°51' W 009°52'1212.6
2015-Aug-28 19:33N 38°03' W 009°55'1312.9
2015-Aug-28 18:33N 38°15' W 009°59'1313.1
2015-Aug-28 17:33N 38°28' W 010°03'1313.1
2015-Aug-28 16:33N 38°41' W 010°07'1313.0
2015-Aug-28 15:33N 38°54' W 010°06'1312.9
2015-Aug-28 14:33N 39°07' W 010°07'1312.7
2015-Aug-28 13:33N 39°20' W 010°08'1212.5
2015-Aug-28 12:33N 39°32' W 010°07'1312.6
2015-Aug-28 11:32N 39°45' W 010°07'294 8.6
2015-Aug-27 01:26N 43°47' W 006°23'1111.7
2015-Aug-27 00:32N 43°46' W 006°08'1111.4
2015-Aug-26 23:31N 43°45' W 005°52'1010.3
2015-Aug-26 22:33N 43°42' W 005°39'9 8.8
2015-Aug-26 21:33N 43°34' W 005°41'0 0.1
2015-Aug-26 19:28N 43°34' W 005°41'0 0.0
2015-Aug-26 17:22N 43°34' W 005°41'0 0.0
2015-Aug-26 16:10N 43°34' W 005°41'0 0.0
2015-Aug-26 15:28N 43°34' W 005°41'0 0.0
2015-Aug-26 14:28N 43°34' W 005°41'0 0.0
2015-Aug-26 13:28N 43°34' W 005°41'0 0.0
2015-Aug-26 11:22N 43°34' W 005°41'0 0.0
2015-Aug-26 09:10N 43°34' W 005°41'0 0.0
2015-Aug-26 08:16N 43°34' W 005°41'0 0.0
2015-Aug-26 04:22N 43°34' W 005°41'0 0.0
2015-Aug-26 03:28N 43°34' W 005°41'0 0.0
2015-Aug-26 02:04N 43°34' W 005°41'0 0.0
2015-Aug-26 01:22N 43°34' W 005°41'0 0.0
2015-Aug-26 00:28N 43°34' W 005°41'0 0.0
2015-Aug-25 23:22N 43°34' W 005°41'0 0.0
2015-Aug-25 22:28N 43°34' W 005°41'0 0.0
2015-Aug-25 21:28N 43°34' W 005°41'0 0.0
2015-Aug-25 20:27N 43°34' W 005°41'0 0.0
2015-Aug-25 18:33N 43°34' W 005°41'0 0.0
2015-Aug-25 16:27N 43°34' W 005°41'0 0.0
2015-Aug-25 15:27N 43°34' W 005°41'0 0.0
2015-Aug-25 13:21N 43°34' W 005°41'0 0.0
2015-Aug-25 11:27N 43°34' W 005°41'0 0.0
2015-Aug-25 10:33N 43°34' W 005°41'0 0.0
2015-Aug-25 09:33N 43°34' W 005°41'0 0.0
2015-Aug-25 08:33N 43°34' W 005°41'0 0.0
2015-Aug-25 07:27N 43°34' W 005°41'0 0.0
2015-Aug-25 06:33N 43°34' W 005°41'0 0.0
2015-Aug-25 05:33N 43°34' W 005°41'0 0.0
2015-Aug-25 04:15N 43°34' W 005°41'0 0.0
2015-Aug-25 03:33N 43°34' W 005°41'0 0.0
2015-Aug-25 01:33N 43°34' W 005°41'0 0.0
2015-Aug-25 00:27N 43°34' W 005°41'0 0.0
2015-Aug-24 21:15N 43°34' W 005°41'0 0.0
2015-Aug-24 20:33N 43°34' W 005°41'0 0.0
2015-Aug-24 19:15N 43°34' W 005°41'0 0.0
2015-Aug-24 18:33N 43°34' W 005°41'0 0.0
2015-Aug-24 17:33N 43°34' W 005°41'0 0.0
2015-Aug-24 16:27N 43°34' W 005°41'0 0.0
2015-Aug-24 15:27N 43°34' W 005°41'0 0.0
2015-Aug-24 14:33N 43°34' W 005°41'6 5.5
2015-Aug-24 13:32N 43°37' W 005°35'1010.0
2015-Aug-24 12:33N 43°36' W 005°22'10 9.8
2015-Aug-24 11:32N 43°34' W 005°08'4 0.8
2015-Aug-24 06:22N 43°35' W 005°14'4 2.2
2015-Aug-24 04:24N 43°36' W 005°20'2 2.5
2015-Aug-24 03:27N 43°36' W 005°23'2 2.7
2015-Aug-24 02:33N 43°36' W 005°27'3 2.5
2015-Aug-24 01:33N 43°37' W 005°30'3 2.8
2015-Aug-24 00:33N 43°38' W 005°34'4 0.9
2015-Aug-23 20:33N 43°36' W 005°29'3 2.8
2015-Aug-23 19:33N 43°36' W 005°33'2 2.2
2015-Aug-23 18:33N 43°36' W 005°36'1 1.0
2015-Aug-23 17:32N 43°37' W 005°37'1 0.9
2015-Aug-23 16:33N 43°37' W 005°36'1 1.4
2015-Aug-23 15:33N 43°37' W 005°34'1 0.9
2015-Aug-23 14:33N 43°36' W 005°33'7 5.6
2015-Aug-23 13:21N 43°36' W 005°42'0 0.1
2015-Aug-23 11:27N 43°36' W 005°42'0 0.1
2015-Aug-23 10:33N 43°36' W 005°42'0 0.0
2015-Aug-23 09:27N 43°36' W 005°42'0 0.0
2015-Aug-23 08:21N 43°36' W 005°42'0 0.0
2015-Aug-23 07:27N 43°36' W 005°42'0 0.0
2015-Aug-23 06:33N 43°36' W 005°42'0 0.1
2015-Aug-23 05:33N 43°36' W 005°42'0 0.0
2015-Aug-23 04:27N 43°36' W 005°42'0 0.0
2015-Aug-23 03:33N 43°36' W 005°42'0 0.1
2015-Aug-23 02:27N 43°36' W 005°42'0 0.0
2015-Aug-23 01:27N 43°36' W 005°42'0 0.0
2015-Aug-22 23:27N 43°36' W 005°42'0 0.0
2015-Aug-22 22:09N 43°36' W 005°42'0 0.0
2015-Aug-22 19:33N 43°36' W 005°42'0 0.1
2015-Aug-22 18:21N 43°36' W 005°42'0 0.1
2015-Aug-22 16:32N 43°36' W 005°42'0 0.0
2015-Aug-22 15:20N 43°36' W 005°42'0 0.1
2015-Aug-22 13:32N 43°36' W 005°42'0 0.0
2015-Aug-22 11:26N 43°36' W 005°42'0 0.1
2015-Aug-22 09:26N 43°36' W 005°42'0 0.1
2015-Aug-22 08:20N 43°36' W 005°42'0 0.1
2015-Aug-22 07:26N 43°36' W 005°42'0 0.1
2015-Aug-22 06:32N 43°36' W 005°42'0 0.1
2015-Aug-22 05:20N 43°36' W 005°42'0 0.0
2015-Aug-22 04:32N 43°36' W 005°42'0 0.0
2015-Aug-22 03:32N 43°36' W 005°42'0 0.0
2015-Aug-22 02:26N 43°36' W 005°42'0 0.0
2015-Aug-22 01:26N 43°36' W 005°42'0 0.0
2015-Aug-22 00:32N 43°36' W 005°42'0 0.0
2015-Aug-21 22:20N 43°36' W 005°42'0 0.0
2015-Aug-21 21:32N 43°36' W 005°42'0 0.0
2015-Aug-21 20:32N 43°36' W 005°42'0 0.0
2015-Aug-21 17:08N 43°36' W 005°42'0 0.0
2015-Aug-21 16:14N 43°36' W 005°42'0 0.0
2015-Aug-21 15:32N 43°36' W 005°42'0 0.0
2015-Aug-21 13:20N 43°36' W 005°42'0 0.0
2015-Aug-21 12:26N 43°36' W 005°42'0 0.1
2015-Aug-21 11:08N 43°36' W 005°42'0 0.0
2015-Aug-21 10:32N 43°36' W 005°42'0 0.1
2015-Aug-21 09:19N 43°36' W 005°42'0 0.0
2015-Aug-21 08:25N 43°36' W 005°42'0 0.0
2015-Aug-21 07:31N 43°36' W 005°42'0 0.0
2015-Aug-21 06:31N 43°36' W 005°42'0 0.0
2015-Aug-21 04:19N 43°36' W 005°42'0 0.0
2015-Aug-20 22:31N 43°36' W 005°42'0 0.0
2015-Aug-20 21:31N 43°36' W 005°42'0 0.0
2015-Aug-20 20:25N 43°36' W 005°42'0 0.0
2015-Aug-20 18:25N 43°36' W 005°42'0 0.0
2015-Aug-20 17:31N 43°36' W 005°42'0 0.0
2015-Aug-20 16:25N 43°36' W 005°42'0 0.0
2015-Aug-20 15:31N 43°36' W 005°42'0 0.0
2015-Aug-20 14:31N 43°36' W 005°42'0 0.0
2015-Aug-20 13:31N 43°36' W 005°42'  

Dump ship's entire track history